createdAt,value
2018-05-18T00:00:28.643Z,0.00
2018-05-18T00:01:28.867Z,0.00
2018-05-18T00:02:29.100Z,0.00
2018-05-18T00:03:29.321Z,0.00
2018-05-18T00:04:29.537Z,0.00
2018-05-18T00:05:29.761Z,0.00
2018-05-18T00:06:30.038Z,0.00
2018-05-18T00:07:30.219Z,0.00
2018-05-18T00:08:30.447Z,0.00
2018-05-18T00:09:30.676Z,0.00
2018-05-18T00:10:30.900Z,0.00
2018-05-18T00:11:31.129Z,0.00
2018-05-18T00:12:31.357Z,0.00
2018-05-18T00:13:31.588Z,0.00
2018-05-18T00:14:31.811Z,0.00
2018-05-18T00:15:32.043Z,0.00
2018-05-18T00:16:32.261Z,0.00
2018-05-18T00:17:32.487Z,0.00
2018-05-18T00:18:32.707Z,0.00
2018-05-18T00:19:32.944Z,0.00
2018-05-18T00:20:33.173Z,0.00
2018-05-18T00:21:33.398Z,0.00
2018-05-18T00:22:33.627Z,0.00
2018-05-18T00:23:33.852Z,0.00
2018-05-18T00:24:34.075Z,0.00
2018-05-18T00:25:34.294Z,0.00
2018-05-18T00:26:34.517Z,0.00
2018-05-18T00:27:34.753Z,0.00
2018-05-18T00:28:34.972Z,0.00
2018-05-18T00:29:35.200Z,0.00
2018-05-18T00:30:35.424Z,0.00
2018-05-18T00:31:35.639Z,0.00
2018-05-18T00:32:35.866Z,0.00
2018-05-18T00:33:36.095Z,0.00
2018-05-18T00:34:36.322Z,0.00
2018-05-18T00:35:36.550Z,0.00
2018-05-18T00:36:36.789Z,0.00
2018-05-18T00:37:37.004Z,0.00
2018-05-18T00:38:37.232Z,0.00
2018-05-18T00:39:37.453Z,0.00
2018-05-18T00:40:37.691Z,0.00
2018-05-18T00:41:37.914Z,0.00
2018-05-18T00:42:38.142Z,0.00
2018-05-18T00:43:38.368Z,0.00
2018-05-18T00:44:38.593Z,0.00
2018-05-18T00:45:38.821Z,0.00
2018-05-18T00:46:39.050Z,0.00
2018-05-18T00:47:39.276Z,0.00
2018-05-18T00:48:39.502Z,0.00
2018-05-18T00:49:39.736Z,0.00
2018-05-18T00:50:39.955Z,0.00
2018-05-18T00:51:40.187Z,0.00
2018-05-18T00:52:40.413Z,0.00
2018-05-18T00:53:40.646Z,0.00
2018-05-18T00:54:40.873Z,0.00
2018-05-18T00:55:41.117Z,0.00
2018-05-18T00:56:41.322Z,0.00
2018-05-18T00:57:41.548Z,0.00
2018-05-18T00:58:41.774Z,0.00
2018-05-18T00:59:42.010Z,0.00
2018-05-18T01:00:42.238Z,0.00
2018-05-18T01:01:42.466Z,0.00
2018-05-18T01:02:42.693Z,0.00
2018-05-18T01:03:42.921Z,0.00
2018-05-18T01:04:43.151Z,0.00
2018-05-18T01:05:43.380Z,0.00
2018-05-18T01:06:43.612Z,0.00
2018-05-18T01:07:43.838Z,0.00
2018-05-18T01:08:44.060Z,0.00
2018-05-18T01:09:44.287Z,0.00
2018-05-18T01:10:44.518Z,0.00
2018-05-18T01:11:44.745Z,0.00
2018-05-18T01:12:44.978Z,0.00
2018-05-18T01:13:45.282Z,0.00
2018-05-18T01:14:45.433Z,0.00
2018-05-18T01:15:45.712Z,0.00
2018-05-18T01:16:45.893Z,0.00
2018-05-18T01:17:46.122Z,0.00
2018-05-18T01:18:46.344Z,0.00
2018-05-18T01:19:46.573Z,0.00
2018-05-18T01:20:46.798Z,0.00
2018-05-18T01:21:47.029Z,0.00
2018-05-18T01:22:47.254Z,0.00
2018-05-18T01:23:47.485Z,0.00
2018-05-18T01:24:47.712Z,0.00
2018-05-18T01:25:47.940Z,0.00
2018-05-18T01:26:48.166Z,0.00
2018-05-18T01:27:48.395Z,0.00
2018-05-18T01:28:48.625Z,0.00
2018-05-18T01:29:48.859Z,0.00
2018-05-18T01:30:49.082Z,0.00
2018-05-18T01:31:49.300Z,0.00
2018-05-18T01:32:49.530Z,0.00
2018-05-18T01:33:49.757Z,0.00
2018-05-18T01:34:49.987Z,0.00
2018-05-18T01:35:50.218Z,0.00
2018-05-18T01:36:50.443Z,0.00
2018-05-18T01:37:50.671Z,0.00
2018-05-18T01:38:50.901Z,0.00
2018-05-18T01:39:51.127Z,0.00
2018-05-18T01:40:51.350Z,0.00
2018-05-18T01:41:51.582Z,0.00
2018-05-18T01:42:51.815Z,0.00
2018-05-18T01:43:52.035Z,0.00
2018-05-18T01:44:52.262Z,0.00
2018-05-18T01:45:52.492Z,0.00
2018-05-18T01:46:52.717Z,0.00
2018-05-18T01:47:52.949Z,0.00
2018-05-18T01:48:53.177Z,0.00
2018-05-18T01:49:53.401Z,0.00
2018-05-18T01:50:53.632Z,0.00
2018-05-18T01:51:53.862Z,0.00
2018-05-18T01:52:54.086Z,0.00
2018-05-18T01:53:54.311Z,0.00
2018-05-18T01:54:54.544Z,0.00
2018-05-18T01:55:54.771Z,0.00
2018-05-18T01:56:54.998Z,0.00
2018-05-18T01:57:55.229Z,0.00
2018-05-18T01:58:55.457Z,0.00
2018-05-18T01:59:55.683Z,0.00
2018-05-18T02:00:55.912Z,0.00
2018-05-18T02:01:56.139Z,0.00
2018-05-18T02:02:56.372Z,0.00
2018-05-18T02:03:56.592Z,0.00
2018-05-18T02:04:56.821Z,0.00
2018-05-18T02:05:57.044Z,0.00
2018-05-18T02:06:57.264Z,0.00
2018-05-18T02:07:57.503Z,0.00
2018-05-18T02:08:57.733Z,0.00
2018-05-18T02:09:57.964Z,0.00
2018-05-18T02:10:58.181Z,0.00
2018-05-18T02:11:58.407Z,0.00
2018-05-18T02:12:58.635Z,0.00
2018-05-18T02:13:58.866Z,0.00
2018-05-18T02:14:59.098Z,0.00
2018-05-18T02:15:59.324Z,0.00
2018-05-18T02:16:59.543Z,0.00
2018-05-18T02:17:59.777Z,0.00
2018-05-18T02:19:00.003Z,0.00
2018-05-18T02:20:00.223Z,0.00
2018-05-18T02:21:00.452Z,0.00
2018-05-18T02:22:00.684Z,0.00
2018-05-18T02:23:00.911Z,0.00
2018-05-18T02:24:01.143Z,0.00
2018-05-18T02:25:01.372Z,0.00
2018-05-18T02:26:01.602Z,0.00
2018-05-18T02:27:01.830Z,0.00
2018-05-18T02:28:02.058Z,0.00
2018-05-18T02:29:02.289Z,0.00
2018-05-18T02:30:02.518Z,0.00
2018-05-18T02:31:02.745Z,0.00
2018-05-18T02:32:02.972Z,0.00
2018-05-18T02:33:03.205Z,0.00
2018-05-18T02:34:03.422Z,0.00
2018-05-18T02:35:03.648Z,0.00
2018-05-18T02:36:03.876Z,0.00
2018-05-18T02:37:04.103Z,0.00
2018-05-18T02:38:04.331Z,0.00
2018-05-18T02:39:04.563Z,0.00
2018-05-18T02:40:04.789Z,0.00
2018-05-18T02:41:05.013Z,0.00
2018-05-18T02:42:05.242Z,0.00
2018-05-18T02:43:05.469Z,0.00
2018-05-18T02:44:05.705Z,0.00
2018-05-18T02:45:05.931Z,0.00
2018-05-18T02:46:06.157Z,0.00
2018-05-18T02:47:06.386Z,0.00
2018-05-18T02:48:06.614Z,0.00
2018-05-18T02:49:06.842Z,0.00
2018-05-18T02:50:07.086Z,0.00
2018-05-18T02:51:07.308Z,0.00
2018-05-18T02:52:07.535Z,0.00
2018-05-18T02:53:07.765Z,0.00
2018-05-18T02:54:07.987Z,0.00
2018-05-18T02:55:08.234Z,0.00
2018-05-18T02:56:08.468Z,0.00
2018-05-18T02:57:08.726Z,0.00
2018-05-18T02:58:08.949Z,0.00
2018-05-18T02:59:09.177Z,0.00
2018-05-18T03:00:09.417Z,0.00
2018-05-18T03:01:09.633Z,4.00
2018-05-18T03:02:09.860Z,4.00
2018-05-18T03:03:10.088Z,4.00
2018-05-18T03:04:10.315Z,0.00
2018-05-18T03:05:10.545Z,0.00
2018-05-18T03:06:10.769Z,4.00
2018-05-18T03:07:10.995Z,4.00
2018-05-18T03:08:11.223Z,4.00
2018-05-18T03:09:11.450Z,4.00
2018-05-18T03:10:11.679Z,4.00
2018-05-18T03:11:11.898Z,8.00
2018-05-18T03:12:12.129Z,4.00
2018-05-18T03:13:12.358Z,8.00
2018-05-18T03:14:12.587Z,8.00
2018-05-18T03:15:12.812Z,8.00
2018-05-18T03:16:13.040Z,8.00
2018-05-18T03:17:13.270Z,8.00
2018-05-18T03:18:13.496Z,8.00
2018-05-18T03:19:13.727Z,12.00
2018-05-18T03:20:13.952Z,12.00
2018-05-18T03:21:14.181Z,20.00
2018-05-18T03:22:14.411Z,20.00
2018-05-18T03:23:14.641Z,20.00
2018-05-18T03:24:14.866Z,20.00
2018-05-18T03:25:15.095Z,20.00
2018-05-18T03:26:15.321Z,24.00
2018-05-18T03:27:15.553Z,28.00
2018-05-18T03:28:15.782Z,28.00
2018-05-18T03:29:16.012Z,28.00
2018-05-18T03:30:16.239Z,32.00
2018-05-18T03:31:16.466Z,32.00
2018-05-18T03:32:16.701Z,40.00
2018-05-18T03:33:16.926Z,40.00
2018-05-18T03:34:17.153Z,44.00
2018-05-18T03:35:17.387Z,44.00
2018-05-18T03:36:17.607Z,48.00
2018-05-18T03:37:17.836Z,52.00
2018-05-18T03:38:18.061Z,56.00
2018-05-18T03:39:18.290Z,60.00
2018-05-18T03:40:18.516Z,64.00
2018-05-18T03:41:18.747Z,64.00
2018-05-18T03:42:18.971Z,68.00
2018-05-18T03:43:19.201Z,68.00
2018-05-18T03:44:19.428Z,76.00
2018-05-18T03:45:19.651Z,76.00
2018-05-18T03:46:19.876Z,80.00
2018-05-18T03:47:20.104Z,84.00
2018-05-18T03:48:20.332Z,88.00
2018-05-18T03:49:20.565Z,88.00
2018-05-18T03:50:20.790Z,92.00
2018-05-18T03:51:21.021Z,100.00
2018-05-18T03:52:21.249Z,104.00
2018-05-18T03:53:21.475Z,108.00
2018-05-18T03:54:21.702Z,116.00
2018-05-18T03:55:21.929Z,124.00
2018-05-18T03:56:22.155Z,128.00
2018-05-18T03:57:22.384Z,136.00
2018-05-18T03:58:22.612Z,144.00
2018-05-18T03:59:22.838Z,152.00
2018-05-18T04:00:23.068Z,156.00
2018-05-18T04:01:23.315Z,164.00
2018-05-18T04:02:23.522Z,168.00
2018-05-18T04:03:23.748Z,176.00
2018-05-18T04:04:23.975Z,184.00
2018-05-18T04:05:24.203Z,192.00
2018-05-18T04:06:24.426Z,200.00
2018-05-18T04:07:24.656Z,208.00
2018-05-18T04:08:24.885Z,216.00
2018-05-18T04:09:25.113Z,228.00
2018-05-18T04:10:25.446Z,236.00
2018-05-18T04:11:25.568Z,236.00
2018-05-18T04:12:25.795Z,244.00
2018-05-18T04:13:26.021Z,256.00
2018-05-18T04:14:26.238Z,264.00
2018-05-18T04:15:26.469Z,272.00
2018-05-18T04:16:26.692Z,268.00
2018-05-18T04:17:26.922Z,272.00
2018-05-18T04:18:27.151Z,284.00
2018-05-18T04:19:27.379Z,284.00
2018-05-18T04:20:27.599Z,288.00
2018-05-18T04:21:27.834Z,304.00
2018-05-18T04:22:28.061Z,316.00
2018-05-18T04:23:28.295Z,336.00
2018-05-18T04:24:28.583Z,348.00
2018-05-18T04:25:28.748Z,352.00
2018-05-18T04:26:28.973Z,356.00
2018-05-18T04:27:29.205Z,360.00
2018-05-18T04:28:29.433Z,364.00
2018-05-18T04:29:29.659Z,376.00
2018-05-18T04:30:29.898Z,388.00
2018-05-18T04:31:30.121Z,392.00
2018-05-18T04:32:30.349Z,392.00
2018-05-18T04:33:30.577Z,392.00
2018-05-18T04:34:30.806Z,396.00
2018-05-18T04:35:31.034Z,404.00
2018-05-18T04:36:31.261Z,412.00
2018-05-18T04:37:31.488Z,424.00
2018-05-18T04:38:31.717Z,432.00
2018-05-18T04:39:31.944Z,436.00
2018-05-18T04:40:32.174Z,444.00
2018-05-18T04:41:32.402Z,448.00
2018-05-18T04:42:32.632Z,464.00
2018-05-18T04:43:32.857Z,476.00
2018-05-18T04:44:33.089Z,484.00
2018-05-18T04:45:33.313Z,496.00
2018-05-18T04:46:33.544Z,500.00
2018-05-18T04:47:33.776Z,512.00
2018-05-18T04:48:34.004Z,516.00
2018-05-18T04:49:34.230Z,524.00
2018-05-18T04:50:34.457Z,540.00
2018-05-18T04:51:34.686Z,560.00
2018-05-18T04:52:34.914Z,572.00
2018-05-18T04:53:35.146Z,572.00
2018-05-18T04:54:35.374Z,584.00
2018-05-18T04:55:35.602Z,596.00
2018-05-18T04:56:35.832Z,608.00
2018-05-18T04:57:36.060Z,632.00
2018-05-18T04:58:36.297Z,644.00
2018-05-18T04:59:36.518Z,652.00
2018-05-18T05:00:36.749Z,668.00
2018-05-18T05:01:36.975Z,680.00
2018-05-18T05:02:37.200Z,684.00
2018-05-18T05:03:37.432Z,700.00
2018-05-18T05:04:37.662Z,712.00
2018-05-18T05:05:37.890Z,716.00
2018-05-18T05:06:38.131Z,716.00
2018-05-18T05:07:38.345Z,720.00
2018-05-18T05:08:38.574Z,724.00
2018-05-18T05:09:38.802Z,744.00
2018-05-18T05:10:39.028Z,760.00
2018-05-18T05:11:39.256Z,768.00
2018-05-18T05:12:39.489Z,780.00
2018-05-18T05:13:39.712Z,796.00
2018-05-18T05:14:39.939Z,812.00
2018-05-18T05:15:40.168Z,828.00
2018-05-18T05:16:40.395Z,844.00
2018-05-18T05:17:40.621Z,856.00
2018-05-18T05:18:40.852Z,872.00
2018-05-18T05:19:41.078Z,876.00
2018-05-18T05:20:41.300Z,884.00
2018-05-18T05:21:41.538Z,896.00
2018-05-18T05:22:41.764Z,912.00
2018-05-18T05:23:42.074Z,924.00
2018-05-18T05:24:42.232Z,944.00
2018-05-18T05:25:42.442Z,960.00
2018-05-18T05:26:42.671Z,968.00
2018-05-18T05:27:42.897Z,972.00
2018-05-18T05:28:43.126Z,964.00
2018-05-18T05:29:43.356Z,952.00
2018-05-18T05:30:43.589Z,944.00
2018-05-18T05:31:43.813Z,936.00
2018-05-18T05:32:44.038Z,932.00
2018-05-18T05:33:44.264Z,936.00
2018-05-18T05:34:44.491Z,936.00
2018-05-18T05:35:44.719Z,936.00
2018-05-18T05:36:45.022Z,932.00
2018-05-18T05:37:45.176Z,936.00
2018-05-18T05:38:45.403Z,932.00
2018-05-18T05:39:45.632Z,932.00
2018-05-18T05:40:45.856Z,936.00
2018-05-18T05:41:46.093Z,948.00
2018-05-18T05:42:46.312Z,956.00
2018-05-18T05:43:46.539Z,968.00
2018-05-18T05:44:46.767Z,972.00
2018-05-18T05:45:46.997Z,988.00
2018-05-18T05:46:47.238Z,1000.00
2018-05-18T05:47:47.447Z,1008.00
2018-05-18T05:48:47.680Z,1012.00
2018-05-18T05:49:47.911Z,1020.00
2018-05-18T05:50:48.142Z,1032.00
2018-05-18T05:51:48.371Z,1036.00
2018-05-18T05:52:48.689Z,1056.00
2018-05-18T05:53:48.830Z,1076.00
2018-05-18T05:54:49.058Z,1100.00
2018-05-18T05:55:49.286Z,1128.00
2018-05-18T05:56:49.514Z,1164.00
2018-05-18T05:57:49.742Z,1196.00
2018-05-18T05:58:49.970Z,1224.00
2018-05-18T05:59:50.196Z,1248.00
2018-05-18T06:00:50.443Z,1280.00
2018-05-18T06:01:50.661Z,1308.00
2018-05-18T06:02:50.888Z,1356.00
2018-05-18T06:03:51.121Z,1400.00
2018-05-18T06:04:51.348Z,1428.00
2018-05-18T06:05:51.577Z,1432.00
2018-05-18T06:06:51.811Z,1452.00
2018-05-18T06:07:52.037Z,1488.00
2018-05-18T06:08:52.264Z,1500.00
2018-05-18T06:09:52.493Z,1496.00
2018-05-18T06:10:52.716Z,1508.00
2018-05-18T06:11:52.956Z,1508.00
2018-05-18T06:12:53.180Z,1492.00
2018-05-18T06:13:53.409Z,1476.00
2018-05-18T06:14:53.633Z,1472.00
2018-05-18T06:15:53.862Z,1476.00
2018-05-18T06:16:54.095Z,1484.00
2018-05-18T06:17:54.318Z,1496.00
2018-05-18T06:18:54.595Z,1512.00
2018-05-18T06:19:54.777Z,1544.00
2018-05-18T06:20:54.998Z,1584.00
2018-05-18T06:21:55.227Z,1616.00
2018-05-18T06:22:55.455Z,1652.00
2018-05-18T06:23:55.684Z,1696.00
2018-05-18T06:24:55.911Z,1748.00
2018-05-18T06:25:56.145Z,1792.00
2018-05-18T06:26:56.368Z,1816.00
2018-05-18T06:27:56.601Z,1824.00
2018-05-18T06:28:56.832Z,1848.00
2018-05-18T06:29:57.062Z,1880.00
2018-05-18T06:30:57.288Z,1916.00
2018-05-18T06:31:57.517Z,1956.00
2018-05-18T06:32:57.743Z,1992.00
2018-05-18T06:33:57.973Z,2008.00
2018-05-18T06:34:58.231Z,2016.00
2018-05-18T06:35:58.433Z,2024.00
2018-05-18T06:36:58.661Z,2040.00
2018-05-18T06:37:58.887Z,2044.00
2018-05-18T06:38:59.120Z,2020.00
2018-05-18T06:39:59.345Z,1984.00
2018-05-18T06:40:59.571Z,1948.00
2018-05-18T06:41:59.794Z,1936.00
2018-05-18T06:43:00.027Z,1924.00
2018-05-18T06:44:00.252Z,1904.00
2018-05-18T06:45:00.477Z,1884.00
2018-05-18T06:46:00.710Z,1876.00
2018-05-18T06:47:00.939Z,1880.00
2018-05-18T06:48:01.175Z,1900.00
2018-05-18T06:49:01.400Z,1956.00
2018-05-18T06:50:01.626Z,2008.00
2018-05-18T06:51:01.860Z,2052.00
2018-05-18T06:52:02.087Z,2068.00
2018-05-18T06:53:02.316Z,2056.00
2018-05-18T06:54:02.545Z,2020.00
2018-05-18T06:55:02.780Z,2000.00
2018-05-18T06:56:02.999Z,2000.00
2018-05-18T06:57:03.233Z,2008.00
2018-05-18T06:58:03.463Z,2020.00
2018-05-18T06:59:03.686Z,2052.00
2018-05-18T07:00:03.916Z,2072.00
2018-05-18T07:01:04.155Z,2116.00
2018-05-18T07:02:04.464Z,2172.00
2018-05-18T07:03:04.597Z,2240.00
2018-05-18T07:04:04.863Z,2308.00
2018-05-18T07:05:05.053Z,2392.00
2018-05-18T07:06:05.283Z,2484.00
2018-05-18T07:07:05.511Z,2576.00
2018-05-18T07:08:05.737Z,2656.00
2018-05-18T07:09:05.962Z,2720.00
2018-05-18T07:10:06.197Z,2760.00
2018-05-18T07:11:06.424Z,2764.00
2018-05-18T07:12:06.651Z,2764.00
2018-05-18T07:13:06.880Z,2764.00
2018-05-18T07:14:07.109Z,2772.00
2018-05-18T07:15:07.334Z,2780.00
2018-05-18T07:16:07.558Z,2796.00
2018-05-18T07:17:07.794Z,2812.00
2018-05-18T07:18:08.025Z,2832.00
2018-05-18T07:19:08.248Z,2856.00
2018-05-18T07:20:08.478Z,2864.00
2018-05-18T07:21:08.703Z,2880.00
2018-05-18T07:22:08.931Z,2900.00
2018-05-18T07:23:09.281Z,2880.00
2018-05-18T07:24:09.391Z,2828.00
2018-05-18T07:25:09.618Z,2780.00
2018-05-18T07:26:09.845Z,2760.00
2018-05-18T07:27:10.076Z,2760.00
2018-05-18T07:28:10.307Z,2788.00
2018-05-18T07:29:10.536Z,2840.00
2018-05-18T07:30:10.809Z,2892.00
2018-05-18T07:31:10.999Z,2940.00
2018-05-18T07:32:11.221Z,2956.00
2018-05-18T07:33:11.450Z,2980.00
2018-05-18T07:34:11.677Z,3012.00
2018-05-18T07:35:11.905Z,3080.00
2018-05-18T07:36:12.219Z,3160.00
2018-05-18T07:37:12.362Z,3244.00
2018-05-18T07:38:12.590Z,3304.00
2018-05-18T07:39:12.823Z,3360.00
2018-05-18T07:40:13.046Z,3412.00
2018-05-18T07:41:13.274Z,3452.00
2018-05-18T07:42:13.506Z,3508.00
2018-05-18T07:43:13.740Z,3556.00
2018-05-18T07:44:13.965Z,3600.00
2018-05-18T07:45:14.187Z,3644.00
2018-05-18T07:46:14.423Z,3708.00
2018-05-18T07:47:14.656Z,3800.00
2018-05-18T07:48:14.881Z,3864.00
2018-05-18T07:49:15.113Z,3904.00
2018-05-18T07:50:15.340Z,3980.00
2018-05-18T07:51:15.569Z,4084.00
2018-05-18T07:52:15.872Z,4188.00
2018-05-18T07:53:16.025Z,4272.00
2018-05-18T07:54:16.253Z,4260.00
2018-05-18T07:55:16.517Z,4248.00
2018-05-18T07:56:16.716Z,4216.00
2018-05-18T07:57:16.946Z,4152.00
2018-05-18T07:58:17.190Z,4100.00
2018-05-18T07:59:17.402Z,4068.00
2018-05-18T08:00:17.633Z,4004.00
2018-05-18T08:01:17.861Z,3892.00
2018-05-18T08:02:18.082Z,3776.00
2018-05-18T08:03:18.310Z,3720.00
2018-05-18T08:04:18.552Z,3684.00
2018-05-18T08:05:18.773Z,3668.00
2018-05-18T08:06:18.996Z,3672.00
2018-05-18T08:07:19.227Z,3692.00
2018-05-18T08:08:19.457Z,3696.00
2018-05-18T08:09:19.677Z,3676.00
2018-05-18T08:10:19.904Z,3636.00
2018-05-18T08:11:20.131Z,3568.00
2018-05-18T08:12:20.359Z,3476.00
2018-05-18T08:13:20.586Z,3388.00
2018-05-18T08:14:20.812Z,3336.00
2018-05-18T08:15:21.040Z,3328.00
2018-05-18T08:16:21.277Z,3308.00
2018-05-18T08:17:21.509Z,3272.00
2018-05-18T08:18:21.736Z,3248.00
2018-05-18T08:19:21.967Z,3252.00
2018-05-18T08:20:22.206Z,3304.00
2018-05-18T08:21:22.424Z,3400.00
2018-05-18T08:22:22.616Z,3500.00
2018-05-18T08:23:22.848Z,3616.00
2018-05-18T08:24:23.076Z,3740.00
2018-05-18T08:25:23.305Z,3868.00
2018-05-18T08:26:23.532Z,3968.00
2018-05-18T08:27:23.758Z,4084.00
2018-05-18T08:28:23.985Z,4240.00
2018-05-18T08:29:24.209Z,4436.00
2018-05-18T08:30:24.439Z,4600.00
2018-05-18T08:31:24.665Z,4680.00
2018-05-18T08:32:24.895Z,4732.00
2018-05-18T08:33:25.121Z,4816.00
2018-05-18T08:34:25.345Z,4920.00
2018-05-18T08:35:25.575Z,5016.00
2018-05-18T08:36:25.804Z,5096.00
2018-05-18T08:37:26.032Z,5140.00
2018-05-18T08:38:26.259Z,5088.00
2018-05-18T08:39:26.500Z,4988.00
2018-05-18T08:40:26.717Z,4892.00
2018-05-18T08:41:26.967Z,4796.00
2018-05-18T08:42:27.164Z,4684.00
2018-05-18T08:43:27.394Z,4612.00
2018-05-18T08:44:27.738Z,4608.00
2018-05-18T08:45:27.861Z,4600.00
2018-05-18T08:46:28.088Z,4560.00
2018-05-18T08:47:28.316Z,4536.00
2018-05-18T08:48:28.544Z,4588.00
2018-05-18T08:49:28.801Z,4700.00
2018-05-18T08:50:29.004Z,4820.00
2018-05-18T08:51:29.232Z,4948.00
2018-05-18T08:52:29.453Z,5072.00
2018-05-18T08:53:29.696Z,5228.00
2018-05-18T08:54:29.921Z,5432.00
2018-05-18T08:55:30.162Z,5648.00
2018-05-18T08:56:30.398Z,5848.00
2018-05-18T08:57:30.618Z,6028.00
2018-05-18T08:58:30.844Z,6160.00
2018-05-18T08:59:31.076Z,6272.00
2018-05-18T09:00:31.311Z,6304.00
2018-05-18T09:01:31.539Z,6260.00
2018-05-18T09:02:31.768Z,6140.00
2018-05-18T09:03:31.989Z,5972.00
2018-05-18T09:04:32.223Z,5780.00
2018-05-18T09:05:32.451Z,5568.00
2018-05-18T09:06:32.683Z,5368.00
2018-05-18T09:07:32.912Z,5228.00
2018-05-18T09:08:33.138Z,5172.00
2018-05-18T09:09:33.365Z,5168.00
2018-05-18T09:10:33.597Z,5164.00
2018-05-18T09:11:33.825Z,5164.00
2018-05-18T09:12:34.059Z,5160.00
2018-05-18T09:13:34.293Z,5136.00
2018-05-18T09:14:34.513Z,5064.00
2018-05-18T09:15:34.752Z,4972.00
2018-05-18T09:16:34.985Z,4864.00
2018-05-18T09:17:35.210Z,4764.00
2018-05-18T09:18:35.448Z,4692.00
2018-05-18T09:19:35.671Z,4644.00
2018-05-18T09:20:35.895Z,4608.00
2018-05-18T09:21:36.125Z,4548.00
2018-05-18T09:22:36.357Z,4468.00
2018-05-18T09:23:36.585Z,4392.00
2018-05-18T09:24:36.818Z,4328.00
2018-05-18T09:25:37.044Z,4292.00
2018-05-18T09:26:37.275Z,4300.00
2018-05-18T09:27:37.503Z,4332.00
2018-05-18T09:28:37.735Z,4408.00
2018-05-18T09:29:37.960Z,4524.00
2018-05-18T09:30:38.194Z,4616.00
2018-05-18T09:31:38.410Z,4680.00
2018-05-18T09:32:38.648Z,4756.00
2018-05-18T09:33:38.875Z,4856.00
2018-05-18T09:34:39.106Z,4972.00
2018-05-18T09:35:39.335Z,5084.00
2018-05-18T09:36:39.569Z,5204.00
2018-05-18T09:37:39.836Z,5312.00
2018-05-18T09:38:40.022Z,5412.00
2018-05-18T09:39:40.251Z,5504.00
2018-05-18T09:40:40.479Z,5552.00
2018-05-18T09:41:40.711Z,5568.00
2018-05-18T09:42:40.937Z,5540.00
2018-05-18T09:43:41.170Z,5500.00
2018-05-18T09:44:41.401Z,5468.00
2018-05-18T09:45:41.630Z,5452.00
2018-05-18T09:46:41.859Z,5436.00
2018-05-18T09:47:42.092Z,5440.00
2018-05-18T09:48:42.325Z,5472.00
2018-05-18T09:49:42.548Z,5520.00
2018-05-18T09:50:42.775Z,5564.00
2018-05-18T09:51:43.012Z,5624.00
2018-05-18T09:52:43.242Z,5688.00
2018-05-18T09:53:43.465Z,5764.00
2018-05-18T09:54:43.738Z,5856.00
2018-05-18T09:55:43.944Z,6004.00
2018-05-18T09:56:44.175Z,6192.00
2018-05-18T09:57:44.414Z,6372.00
2018-05-18T09:58:44.643Z,6544.00
2018-05-18T09:59:44.871Z,6700.00
2018-05-18T10:00:45.139Z,6800.00
2018-05-18T10:01:45.334Z,6844.00
2018-05-18T10:02:45.579Z,6848.00
2018-05-18T10:03:45.789Z,6816.00
2018-05-18T10:04:46.017Z,6796.00
2018-05-18T10:05:46.247Z,6824.00
2018-05-18T10:06:46.476Z,6872.00
2018-05-18T10:07:46.707Z,6936.00
2018-05-18T10:08:46.948Z,7032.00
2018-05-18T10:09:47.169Z,7188.00
2018-05-18T10:10:47.402Z,7356.00
2018-05-18T10:11:47.632Z,7520.00
2018-05-18T10:12:47.860Z,7740.00
2018-05-18T10:13:48.095Z,7968.00
2018-05-18T10:14:48.318Z,8148.00
2018-05-18T10:15:48.597Z,8332.00
2018-05-18T10:16:48.779Z,8452.00
2018-05-18T10:17:49.011Z,8472.00
2018-05-18T10:18:49.239Z,8436.00
2018-05-18T10:19:49.475Z,8408.00
2018-05-18T10:20:49.695Z,8428.00
2018-05-18T10:21:49.927Z,8536.00
2018-05-18T10:22:50.159Z,8728.00
2018-05-18T10:23:50.387Z,8920.00
2018-05-18T10:24:50.627Z,9072.00
2018-05-18T10:25:50.846Z,9148.00
2018-05-18T10:26:51.072Z,9128.00
2018-05-18T10:27:51.305Z,9128.00
2018-05-18T10:28:51.533Z,9180.00
2018-05-18T10:29:51.763Z,9220.00
2018-05-18T10:30:52.001Z,9200.00
2018-05-18T10:31:52.223Z,9148.00
2018-05-18T10:32:52.460Z,9168.00
2018-05-18T10:33:52.705Z,9292.00
2018-05-18T10:34:52.901Z,9460.00
2018-05-18T10:35:53.136Z,9572.00
2018-05-18T10:36:53.363Z,9640.00
2018-05-18T10:37:53.595Z,9664.00
2018-05-18T10:38:53.832Z,9692.00
2018-05-18T10:39:54.056Z,9752.00
2018-05-18T10:40:54.286Z,9792.00
2018-05-18T10:41:54.520Z,9788.00
2018-05-18T10:42:54.745Z,9816.00
2018-05-18T10:43:54.982Z,9900.00
2018-05-18T10:44:55.217Z,10004.00
2018-05-18T10:45:55.447Z,10112.00
2018-05-18T10:46:55.678Z,10188.00
2018-05-18T10:47:55.912Z,10192.00
2018-05-18T10:48:56.136Z,10164.00
2018-05-18T10:49:56.373Z,10080.00
2018-05-18T10:50:56.607Z,9968.00
2018-05-18T10:51:56.839Z,9880.00
2018-05-18T10:52:57.134Z,9824.00
2018-05-18T10:53:57.318Z,9856.00
2018-05-18T10:54:57.540Z,9976.00
2018-05-18T10:55:57.766Z,10096.00
2018-05-18T10:56:58.003Z,10172.00
2018-05-18T10:57:58.229Z,10228.00
2018-05-18T10:58:58.463Z,10316.00
2018-05-18T10:59:58.696Z,10168.00
2018-05-18T11:00:58.925Z,10080.00
2018-05-18T11:01:59.160Z,9968.00
2018-05-18T11:02:59.391Z,9772.00
2018-05-18T11:03:59.616Z,9536.00
2018-05-18T11:04:59.851Z,9380.00
2018-05-18T11:06:00.080Z,9332.00
2018-05-18T11:07:00.331Z,9288.00
2018-05-18T11:08:00.542Z,9184.00
2018-05-18T11:09:00.777Z,9052.00
2018-05-18T11:10:01.010Z,8908.00
2018-05-18T11:11:01.239Z,8804.00
2018-05-18T11:12:01.474Z,8796.00
2018-05-18T11:13:01.702Z,8816.00
2018-05-18T11:14:02.046Z,8816.00
2018-05-18T11:15:02.166Z,8900.00
2018-05-18T11:16:02.400Z,9020.00
2018-05-18T11:17:02.635Z,9064.00
2018-05-18T11:18:02.860Z,9052.00
2018-05-18T11:19:03.099Z,9088.00
2018-05-18T11:20:03.374Z,9140.00
2018-05-18T11:21:03.569Z,9068.00
2018-05-18T11:22:03.796Z,8904.00
2018-05-18T11:23:04.027Z,8772.00
2018-05-18T11:24:04.260Z,8648.00
2018-05-18T11:25:04.489Z,8620.00
2018-05-18T11:26:04.722Z,8684.00
2018-05-18T11:27:04.954Z,8820.00
2018-05-18T11:28:05.188Z,9000.00
2018-05-18T11:29:05.421Z,9088.00
2018-05-18T11:30:05.658Z,8972.00
2018-05-18T11:31:05.888Z,8752.00
2018-05-18T11:32:06.126Z,8416.00
2018-05-18T11:33:06.382Z,8040.00
2018-05-18T11:34:06.587Z,7776.00
2018-05-18T11:35:06.819Z,7604.00
2018-05-18T11:36:07.054Z,7480.00
2018-05-18T11:37:07.280Z,7408.00
2018-05-18T11:38:07.517Z,7344.00
2018-05-18T11:39:07.776Z,7288.00
2018-05-18T11:40:07.984Z,7220.00
2018-05-18T11:41:08.215Z,7180.00
2018-05-18T11:42:08.446Z,7136.00
2018-05-18T11:43:08.680Z,7064.00
2018-05-18T11:44:08.909Z,7012.00
2018-05-18T11:45:09.139Z,6964.00
2018-05-18T11:46:09.371Z,6900.00
2018-05-18T11:47:09.597Z,6864.00
2018-05-18T11:48:09.911Z,6800.00
2018-05-18T11:49:10.060Z,6764.00
2018-05-18T11:50:10.293Z,6828.00
2018-05-18T11:51:10.529Z,6924.00
2018-05-18T11:52:10.769Z,7016.00
2018-05-18T11:53:10.991Z,7096.00
2018-05-18T11:54:11.227Z,7124.00
2018-05-18T11:55:11.456Z,7088.00
2018-05-18T11:56:11.694Z,7048.00
2018-05-18T11:57:11.916Z,7024.00
2018-05-18T11:58:12.149Z,6940.00
2018-05-18T11:59:12.385Z,6828.00
2018-05-18T12:00:12.651Z,6772.00
2018-05-18T12:01:12.852Z,6772.00
2018-05-18T12:02:13.085Z,6760.00
2018-05-18T12:03:13.320Z,6764.00
2018-05-18T12:04:13.551Z,6772.00
2018-05-18T12:05:13.784Z,6848.00
2018-05-18T12:06:14.026Z,6892.00
2018-05-18T12:07:14.261Z,6844.00
2018-05-18T12:08:14.495Z,6764.00
2018-05-18T12:09:14.732Z,6660.00
2018-05-18T12:10:14.967Z,6544.00
2018-05-18T12:11:15.195Z,6436.00
2018-05-18T12:12:15.439Z,6344.00
2018-05-18T12:13:15.672Z,6260.00
2018-05-18T12:14:15.907Z,6304.00
2018-05-18T12:15:16.135Z,6368.00
2018-05-18T12:16:16.383Z,6400.00
2018-05-18T12:17:16.617Z,6404.00
2018-05-18T12:18:16.856Z,6424.00
2018-05-18T12:19:17.081Z,6512.00
2018-05-18T12:20:17.317Z,6656.00
2018-05-18T12:21:17.544Z,6844.00
2018-05-18T12:22:17.778Z,7020.00
2018-05-18T12:23:18.014Z,7128.00
2018-05-18T12:24:18.247Z,7176.00
2018-05-18T12:25:18.478Z,7272.00
2018-05-18T12:26:18.711Z,7320.00
2018-05-18T12:27:18.976Z,7224.00
2018-05-18T12:28:19.213Z,7076.00
2018-05-18T12:29:19.446Z,7008.00
2018-05-18T12:30:19.676Z,7032.00
2018-05-18T12:31:19.909Z,7040.00